Time;durP1;ratioP1;P1;durP2;ratioP2;P2;SDS_P1;SDS_P2;PMS_P1;PMS_P2;Temp;Humidity;BMP_temperature;BMP_pressure;BME280_temperature;BME280_humidity;BME280_pressure;Samples;Min_cycle;Max_cycle;Signal;HPM_P1;HPM_P2
2021/12/03 00:00:39;;;;;;;4.90;3.77;;;1.50;99.90;;;1.75;69.88;96977.69;5045326;28;20055;-41
2021/12/03 00:03:10;;;;;;;6.00;3.60;;;1.60;99.90;;;1.61;70.19;96980.59;5046224;28;20087;-41
2021/12/03 00:05:39;;;;;;;5.83;3.97;;;1.50;99.90;;;1.67;70.57;96981.91;5029624;28;20056;-41
2021/12/03 00:08:08;;;;;;;7.37;4.27;;;1.50;99.90;;;1.63;70.96;96983.91;5046960;28;20370;-41
2021/12/03 00:10:38;;;;;;;6.83;4.13;;;1.50;99.90;;;1.66;71.00;97002.03;5046971;28;20345;-40
2021/12/03 00:13:07;;;;;;;7.47;4.10;;;1.50;99.90;;;1.65;70.89;97003.00;5046330;28;20057;-41
2021/12/03 00:15:36;;;;;;;8.07;3.67;;;1.50;99.90;;;1.66;71.01;97011.69;5045874;28;20074;-41
2021/12/03 00:18:04;;;;;;;7.07;3.97;;;1.50;99.90;;;1.73;70.38;97018.16;5046596;28;20045;-41
2021/12/03 00:20:36;;;;;;;5.80;3.57;;;1.60;99.90;;;1.67;71.03;97021.25;5046829;28;20071;-41
2021/12/03 00:23:05;;;;;;;7.20;5.17;;;1.60;99.90;;;1.64;70.64;97024.94;5045828;28;20063;-41
2021/12/03 00:25:35;;;;;;;8.00;4.83;;;1.60;99.90;;;1.73;70.99;97020.78;5045630;28;20060;-41
2021/12/03 00:28:04;;;;;;;5.90;3.83;;;1.60;99.90;;;1.76;70.54;97036.25;5045594;28;20061;-41
2021/12/03 00:30:35;;;;;;;7.77;4.70;;;1.60;99.90;;;1.81;70.80;97043.78;5048670;28;20040;-41
2021/12/03 00:33:05;;;;;;;6.07;3.90;;;1.70;99.90;;;1.85;70.66;97046.03;5047079;28;20056;-41
2021/12/03 00:35:33;;;;;;;6.93;3.80;;;1.70;99.90;;;1.79;70.66;97041.28;5046028;28;20045;-41
2021/12/03 00:38:03;;;;;;;7.33;3.43;;;1.70;99.70;;;1.79;70.84;97048.31;5045938;28;20358;-41
2021/12/03 00:40:39;;;;;;;6.93;4.17;;;1.70;99.90;;;1.73;70.46;97054.88;5046800;28;20278;-41
2021/12/03 00:43:08;;;;;;;6.47;3.93;;;1.60;99.90;;;1.76;70.52;97060.72;5045741;28;20049;-41
2021/12/03 00:45:37;;;;;;;5.30;3.50;;;1.60;99.90;;;1.64;70.41;97061.66;5006574;28;20391;-41
2021/12/03 00:48:05;;;;;;;8.13;4.13;;;1.60;99.90;;;1.56;70.85;97061.44;5008954;28;20057;-41
2021/12/03 00:50:33;;;;;;;6.70;3.93;;;1.50;99.90;;;1.66;70.56;97072.06;5011271;28;20066;-41
2021/12/03 00:53:02;;;;;;;5.67;3.30;;;1.50;99.90;;;1.50;71.05;97069.78;5010158;28;20053;-41
2021/12/03 00:55:32;;;;;;;7.10;4.00;;;1.40;99.90;;;1.53;71.10;97082.66;5009513;28;20058;-41
2021/12/03 00:58:00;;;;;;;6.90;3.57;;;1.40;99.90;;;1.52;71.22;97078.38;5010992;28;20510;-41
2021/12/03 01:00:32;;;;;;;7.73;4.00;;;1.40;99.90;;;1.52;71.01;97091.50;5010011;28;20049;-41
2021/12/03 01:03:02;;;;;;;5.83;3.63;;;1.40;99.90;;;1.50;70.91;97088.97;5009488;28;20080;-41
2021/12/03 01:05:31;;;;;;;6.47;3.80;;;1.40;99.90;;;1.57;71.22;97077.06;4993189;28;20053;-41
2021/12/03 01:07:59;;;;;;;9.63;4.07;;;1.50;99.90;;;1.61;71.17;97090.78;5008499;28;20402;-41
2021/12/03 01:10:29;;;;;;;6.87;4.30;;;1.50;99.90;;;1.56;71.01;97090.31;5009962;28;20459;-41
2021/12/03 01:12:57;;;;;;;6.60;4.03;;;1.40;99.90;;;1.54;70.58;97093.03;5009207;28;20046;-41
2021/12/03 01:15:32;;;;;;;6.33;4.10;;;1.40;99.90;;;1.56;70.71;97101.63;5008434;28;20046;-41
2021/12/03 01:18:02;;;;;;;7.63;4.10;;;1.40;99.90;;;1.58;70.53;97096.25;5009398;28;20072;-41
2021/12/03 01:20:31;;;;;;;6.23;4.23;;;1.40;99.90;;;1.64;70.69;97115.94;5010047;28;20061;-41
2021/12/03 01:23:00;;;;;;;10.13;4.43;;;1.50;99.90;;;1.59;70.56;97113.69;5010664;28;20065;-41
2021/12/03 01:25:29;;;;;;;6.97;4.47;;;1.40;99.90;;;1.61;70.89;97121.41;5007874;28;20066;-41
2021/12/03 01:27:59;;;;;;;8.87;4.20;;;1.40;99.90;;;1.60;70.64;97117.16;5008564;28;20080;-41
2021/12/03 01:30:29;;;;;;;7.03;3.87;;;1.50;99.90;;;1.62;70.38;97126.56;5010059;28;20045;-41
2021/12/03 01:33:00;;;;;;;9.00;4.00;;;1.50;99.90;;;1.61;70.10;97121.41;5009003;28;20054;-41
2021/12/03 01:35:29;;;;;;;6.30;4.07;;;1.50;99.70;;;1.58;70.47;97123.31;5009475;28;20337;-41
2021/12/03 01:37:57;;;;;;;7.53;4.70;;;1.50;99.80;;;1.61;70.46;97118.78;5008659;28;20340;-41
2021/12/03 01:40:28;;;;;;;5.90;4.13;;;1.50;99.80;;;1.62;70.47;97126.56;5007910;28;20343;-41
2021/12/03 01:42:57;;;;;;;9.53;4.20;;;1.50;99.80;;;1.57;70.80;97131.31;5007817;28;20054;-41
2021/12/03 01:45:31;;;;;;;6.77;4.30;;;1.40;99.50;;;1.61;70.60;97127.53;5007945;28;20344;-41
2021/12/03 01:48:01;;;;;;;;;;;1.40;98.90;;;1.48;70.46;97135.50;5008657;28;20066;-41
2021/12/03 01:50:42;;;;;;;7.37;4.40;;;1.40;98.80;;;1.64;70.28;97135.16;5010245;28;19917;-41
2021/12/03 01:53:15;;;;;;;6.43;3.83;;;1.50;99.90;;;1.71;69.89;97133.72;5009055;28;20057;-41
2021/12/03 01:55:46;;;;;;;9.13;4.57;;;1.60;98.70;;;1.76;70.26;97136.84;5008953;28;20076;-41
2021/12/03 01:58:14;;;;;;;5.83;4.10;;;1.60;98.80;;;1.85;69.98;97134.44;5008045;28;20325;-41
2021/12/03 02:00:44;;;;;;;9.10;5.00;;;1.60;98.90;;;1.80;69.88;97126.91;5010250;28;20076;-41
2021/12/03 02:03:15;;;;;;;9.00;5.00;;;1.60;98.30;;;1.76;69.50;97130.75;5008088;28;20255;-41
2021/12/03 02:05:44;;;;;;;7.53;4.23;;;1.60;98.80;;;1.85;69.79;97134.44;5009147;28;20058;-41
2021/12/03 02:08:13;;;;;;;11.70;4.80;;;1.60;98.90;;;1.90;69.70;97133.16;5008160;28;20061;-41
2021/12/03 02:10:42;;;;;;;8.27;4.57;;;1.70;98.40;;;1.94;69.85;97134.56;5010784;28;20050;-41
2021/12/03 02:13:11;;;;;;;8.13;4.23;;;1.70;98.50;;;1.99;69.70;97134.19;5007891;28;20042;-41
2021/12/03 02:15:42;;;;;;;6.73;4.07;;;1.80;98.10;;;1.92;69.19;97136.47;5007042;28;20045;-41
2021/12/03 02:18:12;;;;;;;6.93;4.70;;;1.70;97.50;;;1.92;69.15;97139.09;5008160;28;20054;-41
2021/12/03 02:20:44;;;;;;;8.07;3.70;;;1.70;98.00;;;1.90;69.47;97145.41;5008678;28;20064;-41
2021/12/03 02:23:13;;;;;;;7.97;4.53;;;1.70;98.00;;;1.94;69.57;97144.25;5008934;28;20422;-41
2021/12/03 02:25:42;;;;;;;8.10;5.07;;;1.70;98.10;;;1.95;69.59;97151.16;5006978;28;20054;-41
2021/12/03 02:28:11;;;;;;;9.20;6.40;;;1.70;97.60;;;1.95;69.06;97156.41;5009237;28;20068;-41
2021/12/03 02:30:40;;;;;;;9.13;5.67;;;1.80;97.70;;;1.97;69.12;97159.75;5008608;28;20046;-41
2021/12/03 02:33:09;;;;;;;7.10;4.67;;;1.80;97.50;;;1.96;69.50;97158.09;5007839;28;20054;-41
2021/12/03 02:35:40;;;;;;;9.73;5.23;;;1.80;97.20;;;1.97;69.08;97159.75;5008357;28;20050;-41
2021/12/03 02:38:10;;;;;;;6.77;4.50;;;1.90;98.40;;;2.02;69.74;97167.28;5009391;28;20355;-41
2021/12/03 02:40:38;;;;;;;8.47;4.97;;;1.90;97.80;;;2.05;69.44;97156.50;5008646;28;20057;-41
2021/12/03 02:43:06;;;;;;;8.40;4.87;;;1.90;97.20;;;2.10;69.41;97160.47;5006865;28;20421;-41
2021/12/03 02:45:35;;;;;;;9.37;5.07;;;2.00;97.40;;;2.11;68.90;97158.66;5007574;28;20058;-41
2021/12/03 02:48:04;;;;;;;13.50;7.23;;;2.00;96.80;;;2.13;69.16;97160.22;5007060;28;20061;-41
2021/12/03 02:50:33;;;;;;;11.83;6.27;;;2.00;96.50;;;2.16;69.44;97162.59;5007822;28;20058;-41
2021/12/03 02:53:02;;;;;;;9.47;6.03;;;2.00;97.10;;;2.22;69.41;97169.16;5008292;28;20337;-41
2021/12/03 02:55:30;;;;;;;9.73;5.10;;;2.10;97.10;;;2.23;69.35;97167.38;5007584;28;20370;-41
2021/12/03 02:57:58;;;;;;;11.50;5.00;;;2.00;96.10;;;2.21;69.17;97167.50;5007357;28;20060;-41
2021/12/03 03:00:28;;;;;;;6.07;4.43;;;2.00;96.40;;;2.21;69.22;97174.53;5007175;28;20053;-41
2021/12/03 03:02:57;;;;;;;9.40;6.07;;;2.00;96.40;;;2.17;68.76;97168.69;5007546;28;20704;-41
2021/12/03 03:05:27;;;;;;;7.63;5.50;;;1.90;96.50;;;2.19;68.82;97181.69;5007540;28;20045;-41
2021/12/03 03:07:55;;;;;;;8.10;4.70;;;1.90;95.80;;;2.18;68.84;97183.50;5008680;28;20048;-41
2021/12/03 03:10:30;;;;;;;7.17;4.07;;;1.90;96.90;;;2.17;68.91;97181.81;5007228;28;20058;-41
2021/12/03 03:13:00;;;;;;;7.60;4.70;;;2.00;96.40;;;2.21;69.16;97180.63;5007410;28;20058;-41
2021/12/03 03:15:28;;;;;;;7.13;4.57;;;2.00;95.90;;;2.17;68.86;97172.16;5006017;28;20068;-41
2021/12/03 03:17:57;;;;;;;7.00;4.43;;;1.90;95.80;;;2.22;68.79;97177.03;5007174;28;20076;-41
2021/12/03 03:20:25;;;;;;;6.57;4.10;;;2.00;96.50;;;2.24;68.79;97185.63;4990186;28;20037;-41
2021/12/03 03:22:53;;;;;;;8.00;4.80;;;2.00;96.10;;;2.25;68.49;97182.06;5007826;28;20170;-41
2021/12/03 03:25:21;;;;;;;9.27;4.57;;;2.00;96.10;;;2.30;68.81;97184.31;5007057;28;20034;-42
2021/12/03 03:27:50;;;;;;;6.87;4.53;;;2.10;96.00;;;2.31;68.71;97191.25;5006110;28;20053;-41
2021/12/03 03:30:19;;;;;;;7.73;4.43;;;2.10;95.40;;;2.33;68.40;97190.16;5007655;28;20057;-41
2021/12/03 03:32:49;;;;;;;9.23;4.50;;;2.10;95.70;;;2.32;68.56;97190.28;5007596;28;20042;-41
2021/12/03 03:35:17;;;;;;;8.10;5.13;;;2.10;95.60;;;2.34;68.47;97191.00;5007193;28;20267;-41
2021/12/03 03:37:46;;;;;;;8.90;5.47;;;2.10;95.20;;;2.23;68.26;97193.63;5007152;28;20041;-41
2021/12/03 03:40:14;;;;;;;6.63;4.27;;;2.00;94.80;;;2.19;68.29;97202.72;5006612;28;20193;-41
2021/12/03 03:42:42;;;;;;;7.97;4.70;;;1.90;95.10;;;2.16;68.54;97206.41;5007196;28;20077;-41
2021/12/03 03:45:14;;;;;;;7.33;4.30;;;2.00;95.30;;;2.19;68.47;97208.81;5006942;28;20054;-41
2021/12/03 03:47:43;;;;;;;7.63;4.60;;;2.00;95.20;;;2.23;68.54;97209.38;4990983;28;20249;-41
2021/12/03 03:50:14;;;;;;;8.57;4.50;;;2.00;95.60;;;2.21;68.28;97208.69;5007914;28;20086;-41
2021/12/03 03:52:43;;;;;;;6.13;4.37;;;2.00;95.30;;;2.22;68.30;97215.63;5006781;28;20052;-41
2021/12/03 03:55:15;;;;;;;12.63;4.23;;;2.10;95.20;;;2.26;68.39;97203.91;5006866;28;20377;-41
2021/12/03 03:57:46;;;;;;;5.63;4.60;;;2.10;95.20;;;2.24;67.82;97219.78;4991084;28;20370;-41
2021/12/03 04:00:22;;;;;;;7.17;4.50;;;2.00;94.30;;;2.14;67.41;97230.16;4991065;28;20474;-41
2021/12/03 04:02:50;;;;;;;7.47;4.77;;;2.00;93.70;;;2.13;67.71;97222.41;5006816;28;20053;-41
2021/12/03 04:05:18;;;;;;;7.33;4.87;;;1.90;94.90;;;2.15;67.98;97225.75;5006192;28;20054;-41
2021/12/03 04:07:46;;;;;;;6.50;4.57;;;1.90;95.00;;;2.14;67.97;97230.16;5005957;28;20064;-41
2021/12/03 04:10:14;;;;;;;7.50;4.57;;;1.90;94.60;;;2.12;67.60;97229.44;5005349;28;20089;-41
2021/12/03 04:12:42;;;;;;;6.40;4.53;;;1.90;93.80;;;2.05;67.37;97236.13;5006577;28;20052;-41
2021/12/03 04:15:12;;;;;;;7.77;4.70;;;1.80;94.00;;;2.01;67.56;97236.47;5006683;28;20474;-41
2021/12/03 04:17:41;;;;;;;8.53;4.70;;;1.70;94.60;;;1.96;67.74;97245.56;5005857;28;20046;-41
2021/12/03 04:20:13;;;;;;;9.33;4.47;;;1.70;94.50;;;2.01;67.48;97241.75;5007832;28;20060;-41
2021/12/03 04:22:42;;;;;;;7.30;4.37;;;1.70;94.70;;;1.99;66.73;97254.16;5009505;28;20079;-41
2021/12/03 04:25:15;;;;;;;6.13;4.40;;;1.80;93.90;;;2.04;67.53;97252.84;5011546;28;20056;-41
2021/12/03 04:27:44;;;;;;;7.13;4.68;;;1.90;94.30;;;2.03;67.65;97253.78;4993200;28;20065;-41
2021/12/03 04:30:23;;;;;;;8.97;4.27;;;1.90;93.80;;;2.05;66.80;97253.69;5010927;28;20058;-41
2021/12/03 04:32:53;;;;;;;7.17;4.47;;;1.90;93.40;;;1.99;66.13;97252.34;5009890;28;20052;-41
2021/12/03 04:35:24;;;;;;;7.57;4.17;;;1.80;93.00;;;1.98;67.22;97253.31;5010537;28;20052;-41
2021/12/03 04:37:53;;;;;;;6.90;4.70;;;1.70;93.30;;;1.94;66.67;97252.72;5008088;28;20224;-41
2021/12/03 04:40:22;;;;;;;6.37;4.30;;;1.70;92.50;;;1.97;67.48;97257.72;5010387;28;20058;-41
2021/12/03 04:42:51;;;;;;;7.07;5.03;;;1.70;93.60;;;1.96;67.15;97258.69;5009735;28;20244;-41
2021/12/03 04:45:23;;;;;;;10.07;4.80;;;1.80;93.50;;;2.01;67.54;97262.75;5009674;28;20056;-41
2021/12/03 04:47:53;;;;;;;6.97;4.67;;;1.80;93.00;;;2.04;67.15;97267.78;5009269;28;20053;-41
2021/12/03 04:50:28;;;;;;;6.00;4.20;;;1.80;93.10;;;2.01;67.02;97273.25;5010377;28;20362;-41
2021/12/03 04:52:57;;;;;;;7.70;4.90;;;1.80;93.10;;;2.03;67.14;97269.53;5010429;28;20535;-41
2021/12/03 04:55:25;;;;;;;8.10;5.27;;;1.80;93.10;;;2.04;67.10;97281.72;5009723;28;20058;-41
2021/12/03 04:57:54;;;;;;;7.17;4.50;;;1.80;93.00;;;2.00;66.81;97277.66;4992717;28;20050;-41
2021/12/03 05:00:34;;;;;;;5.50;3.90;;;1.70;92.80;;;1.92;66.66;97286.13;5009483;28;20068;-41
2021/12/03 05:03:02;;;;;;;8.73;5.00;;;1.60;92.40;;;1.90;67.10;97284.56;5009567;28;20064;-41
2021/12/03 05:05:32;;;;;;;7.97;4.70;;;1.60;93.10;;;1.89;67.05;97282.91;5009640;28;20061;-41
2021/12/03 05:08:07;;;;;;;8.53;5.07;;;1.50;92.80;;;1.89;66.92;97286.34;5009253;28;20056;-41
2021/12/03 05:10:39;;;;;;;7.83;5.00;;;1.50;93.40;;;1.88;66.47;97283.81;5010390;28;20065;-41
2021/12/03 05:13:15;;;;;;;6.03;3.97;;;1.60;93.00;;;1.82;66.39;97281.66;5009712;28;20042;-41
2021/12/03 05:15:45;;;;;;;8.20;3.87;;;1.60;92.60;;;1.79;66.79;97292.41;5009879;28;20050;-41
2021/12/03 05:18:17;;;;;;;7.87;4.10;;;1.50;92.70;;;1.77;66.57;97295.16;5006361;28;20084;-41
2021/12/03 05:20:48;;;;;;;6.63;4.05;;;1.50;92.50;;;1.70;66.48;97293.94;5009606;28;20050;-41
2021/12/03 05:23:17;;;;;;;7.47;4.57;;;1.50;92.10;;;1.67;66.69;97299.44;5009428;28;20050;-41
2021/12/03 05:25:46;;;;;;;5.57;3.50;;;1.40;92.60;;;1.64;66.73;97294.38;5009523;28;20064;-41
2021/12/03 05:28:16;;;;;;;7.07;4.10;;;1.30;92.20;;;1.59;66.44;97294.75;4992681;28;20062;-41
2021/12/03 05:30:50;;;;;;;8.43;4.20;;;1.30;92.30;;;1.56;66.19;97294.97;5009262;28;20065;-41
2021/12/03 05:33:19;;;;;;;5.63;3.77;;;1.30;92.40;;;1.56;66.19;97303.66;4991278;28;20409;-41
2021/12/03 05:35:48;;;;;;;6.13;3.83;;;1.30;92.40;;;1.55;66.24;97295.91;5008466;28;20046;-41
2021/12/03 05:38:16;;;;;;;5.00;3.20;;;1.30;92.10;;;1.54;66.38;97300.31;5009534;28;20376;-41
2021/12/03 05:40:45;;;;;;;6.33;4.20;;;1.30;92.10;;;1.55;66.60;97306.38;5010131;28;20050;-41
2021/12/03 05:43:17;;;;;;;6.40;4.03;;;1.30;91.80;;;1.52;66.37;97311.88;5008287;28;20246;-41
2021/12/03 05:45:46;;;;;;;5.37;3.40;;;1.20;91.70;;;1.51;66.11;97313.69;5008920;28;20065;-41
2021/12/03 05:48:15;;;;;;;5.77;3.23;;;1.20;91.40;;;1.49;66.01;97319.97;5009085;28;20626;-41
2021/12/03 05:50:43;;;;;;;5.53;3.20;;;1.20;91.40;;;1.35;65.51;97315.72;5009528;28;20251;-41
2021/12/03 05:53:11;;;;;;;7.63;3.43;;;1.10;90.70;;;1.36;66.41;97318.25;5008522;28;20141;-40
2021/12/03 05:55:39;;;;;;;5.87;3.63;;;1.10;91.50;;;1.37;65.93;97325.16;5008372;28;20050;-41
2021/12/03 05:58:07;;;;;;;5.20;2.87;;;1.10;91.60;;;1.35;65.85;97321.81;5008714;28;20058;-41
2021/12/03 06:00:42;;;;;;;6.67;3.80;;;1.10;91.50;;;1.34;65.52;97328.03;5009381;28;20054;-41
2021/12/03 06:03:10;;;;;;;5.77;3.63;;;1.10;90.80;;;1.33;65.88;97336.00;4992382;28;20056;-41
2021/12/03 06:05:40;;;;;;;6.83;3.73;;;1.10;91.00;;;1.32;65.73;97340.41;5008774;28;20237;-41
2021/12/03 06:08:09;;;;;;;7.23;3.73;;;1.10;91.30;;;1.32;65.86;97342.19;5009560;28;20232;-41
2021/12/03 06:10:38;;;;;;;7.43;4.43;;;1.00;91.20;;;1.30;65.68;97355.41;5010450;28;20057;-41
2021/12/03 06:13:06;;;;;;;7.77;4.07;;;1.00;91.20;;;1.29;65.45;97350.28;5009093;28;20046;-41
2021/12/03 06:15:34;;;;;;;6.47;3.63;;;1.10;91.20;;;1.26;65.89;97350.50;5007677;28;20066;-41
2021/12/03 06:18:02;;;;;;;7.87;4.90;;;1.00;90.80;;;1.21;65.30;97352.63;5010204;28;20054;-41
2021/12/03 06:20:30;;;;;;;6.93;3.80;;;1.00;90.50;;;1.18;65.50;97349.28;5008087;28;20472;-41
2021/12/03 06:22:59;;;;;;;6.30;4.37;;;0.90;90.50;;;1.17;66.00;97363.31;5006579;28;20064;-41
2021/12/03 06:25:27;;;;;;;6.23;4.10;;;0.90;90.60;;;1.15;65.84;97364.38;5007897;28;20061;-41
2021/12/03 06:27:57;;;;;;;6.97;3.97;;;0.90;90.70;;;1.18;65.97;97374.63;5008964;28;20068;-41
2021/12/03 06:30:26;;;;;;;6.87;3.67;;;0.90;91.10;;;1.20;65.88;97370.13;5010062;28;20374;-41
2021/12/03 06:32:54;;;;;;;6.67;3.93;;;0.90;90.10;;;1.18;65.19;97365.00;5008290;28;20370;-41
2021/12/03 06:35:23;;;;;;;5.23;3.87;;;0.90;90.30;;;1.20;65.58;97371.91;5008413;28;20060;-41
2021/12/03 06:37:51;;;;;;;6.53;3.97;;;0.90;89.90;;;1.20;65.24;97361.41;5008152;28;20042;-41
2021/12/03 06:40:25;;;;;;;8.03;3.50;;;0.90;89.60;;;1.21;65.19;97365.72;5008991;28;20057;-41
2021/12/03 06:42:53;;;;;;;;;;;1.00;89.60;;;1.19;64.90;97365.84;5008249;28;20066;-41
2021/12/03 06:45:22;;;;;;;5.60;3.13;;;1.10;87.90;;;1.24;65.10;97373.38;5007019;28;19918;-41
2021/12/03 06:47:52;;;;;;;5.80;3.73;;;1.10;88.80;;;1.27;65.38;97379.22;5006823;28;20058;-41
2021/12/03 06:50:21;;;;;;;7.03;4.00;;;1.10;88.70;;;1.31;65.05;97374.59;5008406;28;20046;-41
2021/12/03 06:52:58;;;;;;;6.53;3.53;;;1.20;88.70;;;1.32;64.07;97371.88;5007494;28;20053;-41
2021/12/03 06:55:28;;;;;;;8.67;3.47;;;1.30;88.10;;;1.35;64.29;97379.50;4990512;28;20054;-41
2021/12/03 06:57:55;;;;;;;4.87;3.40;;;1.30;88.50;;;1.32;64.74;97387.63;5007179;28;20256;-41
2021/12/03 07:00:23;;;;;;;6.37;3.60;;;1.30;87.80;;;1.35;65.12;97379.50;5008406;28;20076;-40
2021/12/03 07:02:51;;;;;;;5.93;4.13;;;1.20;87.70;;;1.37;64.88;97387.28;5006935;28;20264;-42
2021/12/03 07:05:20;;;;;;;6.90;3.70;;;1.30;88.00;;;1.34;64.69;97379.66;5007173;28;20089;-41
2021/12/03 07:07:49;;;;;;;5.23;3.40;;;1.30;87.30;;;1.41;64.81;97398.41;5007298;28;20079;-41
2021/12/03 07:10:17;;;;;;;4.90;3.20;;;1.30;87.90;;;1.43;64.64;97391.25;5007721;28;20076;-41
2021/12/03 07:12:45;;;;;;;6.23;3.27;;;1.30;87.30;;;1.46;64.64;97385.78;5007418;28;20046;-41
2021/12/03 07:15:12;;;;;;;5.40;3.60;;;1.30;87.80;;;1.47;65.04;97398.78;5007069;28;20064;-40
2021/12/03 07:17:40;;;;;;;5.67;3.13;;;1.30;87.10;;;1.52;64.89;97399.28;5005965;28;20363;-41
2021/12/03 07:20:10;;;;;;;4.73;2.50;;;1.30;87.60;;;1.50;64.77;97393.31;5006518;28;20050;-41
2021/12/03 07:22:38;;;;;;;4.43;2.50;;;1.50;87.10;;;1.47;64.30;97395.31;5007660;28;20539;-41
2021/12/03 07:25:06;;;;;;;4.30;2.40;;;1.30;86.60;;;1.48;63.51;97412.75;5007048;28;20048;-41
2021/12/03 07:27:34;;;;;;;3.97;2.60;;;1.30;85.40;;;1.48;63.92;97404.88;5006586;28;20084;-42
2021/12/03 07:30:04;;;;;;;4.07;3.47;;;1.30;86.20;;;1.44;62.75;97412.13;5008275;28;20050;-41
2021/12/03 07:32:33;;;;;;;4.70;3.03;;;1.30;85.40;;;1.46;63.48;97417.28;5007668;28;20056;-41
2021/12/03 07:35:02;;;;;;;4.63;2.83;;;1.40;85.80;;;1.44;62.80;97422.63;5006452;28;20058;-42
2021/12/03 07:37:30;;;;;;;3.27;2.40;;;1.30;84.80;;;1.39;62.72;97414.22;5006667;28;20054;-41
2021/12/03 07:40:01;;;;;;;7.07;2.30;;;1.30;84.10;;;1.41;63.33;97424.63;5005768;28;20476;-42
2021/12/03 07:42:29;;;;;;;2.63;1.97;;;1.30;82.50;;;1.35;62.28;97428.53;5007891;28;20058;-41
2021/12/03 07:44:58;;;;;;;3.93;2.30;;;1.30;83.40;;;1.35;63.44;97433.78;5006404;28;20057;-41
2021/12/03 07:47:26;;;;;;;4.53;2.13;;;1.30;84.10;;;1.40;63.12;97443.91;5007213;28;20241;-41
2021/12/03 07:49:54;;;;;;;5.73;2.50;;;1.30;83.80;;;1.33;61.91;97433.03;5007409;28;20056;-41
2021/12/03 07:52:23;;;;;;;4.10;2.30;;;1.30;81.90;;;1.40;63.41;97439.53;5007218;28;20054;-40
2021/12/03 07:54:51;;;;;;;3.47;2.27;;;1.30;84.40;;;1.45;63.51;97437.41;5006067;28;20057;-41
2021/12/03 07:57:19;;;;;;;3.47;2.40;;;1.40;84.20;;;1.57;63.60;97435.69;5007112;28;20060;-41
2021/12/03 07:59:47;;;;;;;4.57;2.47;;;1.50;84.60;;;1.68;63.83;97435.75;5007147;28;20054;-41
2021/12/03 08:02:15;;;;;;;5.13;2.50;;;1.50;84.30;;;1.74;63.45;97437.09;5006775;28;20042;-41
2021/12/03 08:04:43;;;;;;;2.83;2.13;;;1.60;84.30;;;1.74;63.15;97437.09;5006640;28;20075;-42
2021/12/03 08:07:12;;;;;;;6.43;3.33;;;1.60;82.80;;;1.75;63.19;97434.38;5006472;28;20062;-42
2021/12/03 08:09:40;;;;;;;5.57;3.40;;;1.60;83.00;;;1.83;62.92;97438.22;5006605;28;20072;-41
2021/12/03 08:12:08;;;;;;;5.37;2.57;;;1.70;83.80;;;1.85;62.14;97439.78;4989055;28;20374;-42
2021/12/03 08:14:36;;;;;;;3.33;2.17;;;1.70;83.00;;;1.83;62.93;97441.69;5004653;28;20067;-42
2021/12/03 08:17:04;;;;;;;4.43;2.30;;;1.70;82.30;;;1.84;63.17;97442.53;5007183;28;20050;-41
2021/12/03 08:19:33;;;;;;;3.27;2.10;;;1.70;82.00;;;1.85;62.84;97439.78;5003850;28;20052;-42
2021/12/03 08:22:01;;;;;;;3.50;2.27;;;1.70;82.20;;;1.85;63.06;97442.41;5007030;28;20054;-42
2021/12/03 08:24:29;;;;;;;4.10;2.40;;;1.70;82.40;;;1.91;62.87;97443.75;5007198;28;20049;-43
2021/12/03 08:26:57;;;;;;;4.33;2.93;;;1.70;82.70;;;1.95;63.23;97447.84;5007481;28;20119;-42
2021/12/03 08:29:25;;;;;;;8.43;5.37;;;1.80;83.20;;;1.99;62.85;97445.81;5006239;28;20056;-42
2021/12/03 08:31:53;;;;;;;7.47;4.07;;;1.80;82.60;;;2.05;63.03;97453.25;5006306;28;20352;-41
2021/12/03 08:34:20;;;;;;;8.37;5.07;;;1.80;82.70;;;2.08;62.60;97453.03;5006666;28;20041;-42
2021/12/03 08:36:48;;;;;;;5.83;4.30;;;1.90;81.00;;;2.04;62.70;97444.53;5006044;28;20054;-41
2021/12/03 08:39:16;;;;;;;3.50;2.30;;;1.80;81.20;;;2.07;62.94;97430.34;5005564;28;20049;-42
2021/12/03 08:41:44;;;;;;;4.47;2.37;;;1.90;82.30;;;2.06;62.40;97436.56;5006986;28;20040;-41
2021/12/03 08:44:12;;;;;;;2.80;2.00;;;1.90;81.60;;;2.09;62.56;97431.06;5007013;28;20050;-41
2021/12/03 08:46:40;;;;;;;2.67;1.90;;;1.90;81.60;;;2.13;62.38;97437.75;5006155;28;20054;-41
2021/12/03 08:49:15;;;;;;;2.70;1.60;;;2.00;80.30;;;2.14;62.09;97442.91;5006403;28;20057;-42
2021/12/03 08:56:58;;;;;;;3.57;2.00;;;2.00;80.30;;;2.27;62.28;97452.50;5006334;28;20268;-37
2021/12/03 08:59:26;;;;;;;4.70;2.53;;;2.00;80.40;;;2.29;62.38;97448.81;5014626;28;20049;-42
2021/12/03 09:01:54;;;;;;;3.63;1.90;;;2.10;80.70;;;2.34;62.55;97459.78;5032988;28;20067;-41
2021/12/03 09:04:23;;;;;;;2.97;2.10;;;2.10;80.40;;;2.38;62.44;97464.84;5032706;28;20092;-41
2021/12/03 09:06:52;;;;;;;3.83;2.27;;;2.10;80.50;;;2.43;62.34;97465.34;5033730;28;20049;-41
2021/12/03 09:09:20;;;;;;;3.60;2.50;;;2.20;80.20;;;2.41;62.42;97462.81;5043902;28;20057;-41
2021/12/03 09:11:49;;;;;;;3.17;2.33;;;2.20;80.20;;;2.42;62.22;97456.59;5045252;28;20061;-41
2021/12/03 09:14:42;;;;;;;4.57;3.07;;;2.20;80.30;;;2.43;62.40;97453.03;5027254;28;20037;-41
2021/12/03 09:22:54;;;;;;;7.07;3.50;;;2.20;80.40;;;2.49;62.54;97457.00;5040462;28;20049;-41
2021/12/03 09:25:30;;;;;;;5.33;3.00;;;2.20;80.90;;;2.52;62.46;97465.50;5040415;28;20065;-41
2021/12/03 09:28:02;;;;;;;4.43;2.70;;;2.30;80.70;;;2.54;62.45;97466.22;5041162;28;20049;-41
2021/12/03 09:30:40;;;;;;;4.30;2.50;;;2.30;79.80;;;2.55;62.13;97469.66;5040503;28;20037;-42
2021/12/03 09:33:12;;;;;;;3.37;2.10;;;2.30;80.50;;;2.55;61.96;97456.53;5037975;28;20278;-42
2021/12/03 09:35:45;;;;;;;6.97;2.80;;;2.30;79.20;;;2.55;62.04;97453.91;5027940;28;20344;-41
2021/12/03 09:38:14;;;;;;;6.10;2.47;;;2.20;79.30;;;2.54;62.15;97454.88;5028770;28;20089;-42
2021/12/03 09:40:43;;;;;;;3.37;2.30;;;2.20;78.90;;;2.58;62.23;97458.06;5027901;28;20225;-42
2021/12/03 09:43:10;;;;;;;7.57;2.00;;;2.20;80.50;;;2.59;62.03;97457.97;5022835;28;20057;-42
2021/12/03 09:45:43;;;;;;;5.27;2.40;;;2.30;79.10;;;2.61;61.97;97449.97;5028876;28;20049;-41
2021/12/03 09:48:28;;;;;;;2.80;2.17;;;2.30;79.50;;;2.60;61.96;97443.03;5029268;28;20343;-41
2021/12/03 09:50:57;;;;;;;5.27;2.93;;;2.30;79.00;;;2.57;61.15;97441.47;5022165;28;20057;-41
2021/12/03 09:53:39;;;;;;;5.73;2.93;;;2.20;77.30;;;2.52;61.46;97430.47;5028293;28;20045;-41
2021/12/03 09:56:12;;;;;;;;;;;2.20;78.20;;;2.47;61.39;97433.44;5009154;28;20073;-42
2021/12/03 10:01:18;;;;;;;5.37;3.17;;;2.10;78.80;;;2.49;61.29;97430.72;5030000;28;20049;-41
2021/12/03 10:04:14;;;;;;;5.93;2.60;;;2.10;79.30;;;2.52;61.57;97433.09;5028709;28;20045;-41
2021/12/03 10:12:23;;;;;;;3.60;2.47;;;2.10;77.80;;;2.45;61.50;97438.00;5027237;28;20057;-42
2021/12/03 10:17:53;;;;;;;4.37;1.63;;;2.20;78.00;;;2.43;61.32;97431.19;5030397;28;20115;-42
2021/12/03 10:51:53;;;;;;;3.87;1.90;;;2.70;77.30;;;2.90;61.13;97400.41;5027718;28;20292;-41
2021/12/03 12:34:27;;;;;;;8.80;3.63;;;3.80;75.20;;;3.93;60.80;97277.16;5046515;28;20061;-41
2021/12/03 13:46:35;;;;;;;6.07;2.53;;;3.80;72.80;;;3.92;59.09;97230.72;5023459;28;20054;-41
2021/12/03 14:16:07;;;;;;;3.50;1.60;;;3.50;69.50;;;3.71;57.91;97206.19;5027541;28;20056;-41
2021/12/03 14:43:04;;;;;;;5.33;1.90;;;3.50;69.40;;;3.62;58.33;97193.78;5027937;28;20045;-44
2021/12/03 14:45:58;;;;;;;2.80;1.40;;;3.40;70.30;;;3.60;58.05;97187.84;5027523;28;20448;-43
2021/12/03 14:57:08;;;;;;;3.03;1.60;;;3.30;70.20;;;3.47;57.49;97196.75;5027621;28;20057;-44
2021/12/03 14:59:38;;;;;;;3.37;1.43;;;3.20;69.90;;;3.45;57.76;97193.44;5029071;28;20049;-43
2021/12/03 15:05:24;;;;;;;3.73;1.50;;;3.20;71.00;;;3.48;58.04;97194.97;5026323;28;20053;-44
2021/12/03 15:07:50;;;;;;;2.63;1.50;;;3.20;69.90;;;3.47;57.91;97188.00;5025807;28;20419;-44
2021/12/03 15:10:28;;;;;;;2.70;1.40;;;3.20;70.90;;;3.45;57.91;97198.69;5026162;28;20067;-47
2021/12/03 15:35:21;;;;;;;3.40;1.67;;;3.00;70.70;;;3.24;57.49;97171.50;5026680;28;20061;-44
2021/12/03 15:38:18;;;;;;;2.78;1.70;;;2.90;70.30;;;3.24;57.83;97176.75;5027965;28;20041;-45
2021/12/03 16:04:33;;;;;;;4.77;2.00;;;2.70;70.30;;;3.07;57.83;97146.59;5036730;28;20038;-44
2021/12/03 16:23:28;;;;;;;8.03;3.07;;;2.70;70.50;;;3.01;57.92;97140.06;5041444;28;20050;-46
2021/12/03 16:25:55;;;;;;;9.07;3.07;;;2.70;70.50;;;3.01;58.10;97137.44;5027425;28;20061;-44
2021/12/03 16:50:57;;;;;;;7.60;3.20;;;2.70;70.60;;;2.93;58.10;97117.03;5037467;28;20050;-45
2021/12/03 16:53:28;;;;;;;6.90;3.60;;;2.70;70.50;;;2.90;57.69;97111.16;5039849;28;20045;-43
2021/12/03 16:56:26;;;;;;;5.90;3.93;;;2.70;70.30;;;2.91;57.74;97110.22;5035062;28;20069;-45